sensor_id;sensor_type;location;lat;lon;timestamp;pressure;altitude;pressure_sealevel;temperature;humidity
23341;BME280;12239;53.404;23.492;2022-07-29T00:00:59;100330.90;;;12.64;100.00
23341;BME280;12239;53.404;23.492;2022-07-29T00:03:26;100328.83;;;12.61;100.00
23341;BME280;12239;53.404;23.492;2022-07-29T00:05:57;100332.58;;;12.59;100.00
23341;BME280;12239;53.404;23.492;2022-07-29T00:08:44;100329.10;;;12.54;100.00
23341;BME280;12239;53.404;23.492;2022-07-29T00:11:12;100331.09;;;12.52;100.00
23341;BME280;12239;53.404;23.492;2022-07-29T00:13:39;100337.11;;;12.54;100.00
23341;BME280;12239;53.404;23.492;2022-07-29T00:16:06;100337.70;;;12.53;100.00
23341;BME280;12239;53.404;23.492;2022-07-29T00:18:33;100336.42;;;12.51;100.00
23341;BME280;12239;53.404;23.492;2022-07-29T00:21:01;100332.42;;;12.45;100.00
23341;BME280;12239;53.404;23.492;2022-07-29T00:23:28;100330.48;;;12.38;100.00
23341;BME280;12239;53.404;23.492;2022-07-29T00:25:56;100330.07;;;12.29;100.00
23341;BME280;12239;53.404;23.492;2022-07-29T00:28:23;100328.34;;;12.21;100.00
23341;BME280;12239;53.404;23.492;2022-07-29T00:31:10;100323.27;;;12.13;100.00
23341;BME280;12239;53.404;23.492;2022-07-29T00:33:41;100324.75;;;12.10;100.00
23341;BME280;12239;53.404;23.492;2022-07-29T00:36:08;100328.11;;;12.07;100.00
23341;BME280;12239;53.404;23.492;2022-07-29T00:38:44;100327.40;;;12.07;100.00
23341;BME280;12239;53.404;23.492;2022-07-29T00:41:12;100330.80;;;12.07;100.00
23341;BME280;12239;53.404;23.492;2022-07-29T00:43:39;100329.13;;;12.07;100.00
23341;BME280;12239;53.404;23.492;2022-07-29T00:46:07;100329.35;;;12.08;100.00
23341;BME280;12239;53.404;23.492;2022-07-29T00:48:38;100330.80;;;12.07;100.00
23341;BME280;12239;53.404;23.492;2022-07-29T00:51:16;100332.77;;;12.06;100.00
23341;BME280;12239;53.404;23.492;2022-07-29T00:54:04;100333.79;;;12.05;100.00
23341;BME280;12239;53.404;23.492;2022-07-29T00:56:34;100332.16;;;12.05;100.00
23341;BME280;12239;53.404;23.492;2022-07-29T00:59:02;100332.86;;;12.06;100.00
23341;BME280;12239;53.404;23.492;2022-07-29T01:01:49;100328.77;;;12.04;100.00
23341;BME280;12239;53.404;23.492;2022-07-29T01:04:16;100329.59;;;12.04;100.00
23341;BME280;12239;53.404;23.492;2022-07-29T01:07:04;100329.06;;;12.01;100.00
23341;BME280;12239;53.404;23.492;2022-07-29T01:09:52;100326.77;;;11.97;100.00
23341;BME280;12239;53.404;23.492;2022-07-29T01:12:29;100326.25;;;11.94;100.00
23341;BME280;12239;53.404;23.492;2022-07-29T01:15:00;100323.59;;;11.93;100.00
23341;BME280;12239;53.404;23.492;2022-07-29T01:17:32;100323.86;;;11.92;100.00
23341;BME280;12239;53.404;23.492;2022-07-29T01:20:22;100324.14;;;11.91;100.00
23341;BME280;12239;53.404;23.492;2022-07-29T01:26:06;100328.63;;;11.90;100.00
23341;BME280;12239;53.404;23.492;2022-07-29T01:29:00;100331.70;;;11.88;100.00
23341;BME280;12239;53.404;23.492;2022-07-29T01:31:43;100335.09;;;11.80;100.00
23341;BME280;12239;53.404;23.492;2022-07-29T01:34:34;100335.83;;;11.70;100.00
23341;BME280;12239;53.404;23.492;2022-07-29T01:37:08;100331.84;;;11.61;100.00
23341;BME280;12239;53.404;23.492;2022-07-29T01:39:58;100332.56;;;11.54;100.00
23341;BME280;12239;53.404;23.492;2022-07-29T01:42:34;100329.83;;;11.53;100.00
23341;BME280;12239;53.404;23.492;2022-07-29T01:45:23;100328.70;;;11.53;100.00
23341;BME280;12239;53.404;23.492;2022-07-29T01:48:03;100328.80;;;11.51;100.00
23341;BME280;12239;53.404;23.492;2022-07-29T01:50:53;100327.86;;;11.46;100.00
23341;BME280;12239;53.404;23.492;2022-07-29T01:53:25;100336.08;;;11.39;100.00
23341;BME280;12239;53.404;23.492;2022-07-29T01:56:12;100333.02;;;11.33;100.00
23341;BME280;12239;53.404;23.492;2022-07-29T01:59:00;100334.98;;;11.28;100.00
23341;BME280;12239;53.404;23.492;2022-07-29T02:01:48;100337.59;;;11.24;100.00
23341;BME280;12239;53.404;23.492;2022-07-29T02:04:17;100339.32;;;11.18;100.00
23341;BME280;12239;53.404;23.492;2022-07-29T02:06:45;100340.19;;;11.15;100.00
23341;BME280;12239;53.404;23.492;2022-07-29T02:09:35;100337.33;;;11.13;100.00
23341;BME280;12239;53.404;23.492;2022-07-29T02:12:23;100334.48;;;11.12;100.00
23341;BME280;12239;53.404;23.492;2022-07-29T02:14:52;100337.77;;;11.10;100.00
23341;BME280;12239;53.404;23.492;2022-07-29T02:17:25;100341.50;;;11.10;100.00
23341;BME280;12239;53.404;23.492;2022-07-29T02:19:56;100344.09;;;11.07;100.00
23341;BME280;12239;53.404;23.492;2022-07-29T02:22:26;100344.52;;;11.06;100.00
23341;BME280;12239;53.404;23.492;2022-07-29T02:25:13;100342.95;;;11.04;100.00
23341;BME280;12239;53.404;23.492;2022-07-29T02:28:03;100346.89;;;11.02;100.00
23341;BME280;12239;53.404;23.492;2022-07-29T02:30:52;100349.23;;;11.01;100.00
23341;BME280;12239;53.404;23.492;2022-07-29T02:33:40;100351.52;;;11.01;100.00
23341;BME280;12239;53.404;23.492;2022-07-29T02:36:18;100350.67;;;11.00;100.00
23341;BME280;12239;53.404;23.492;2022-07-29T02:38:47;100351.41;;;10.98;100.00
23341;BME280;12239;53.404;23.492;2022-07-29T02:41:40;100352.34;;;10.98;100.00
23341;BME280;12239;53.404;23.492;2022-07-29T02:44:28;100350.88;;;10.98;100.00
23341;BME280;12239;53.404;23.492;2022-07-29T02:47:17;100351.64;;;10.98;100.00
23341;BME280;12239;53.404;23.492;2022-07-29T02:50:07;100350.61;;;10.98;100.00
23341;BME280;12239;53.404;23.492;2022-07-29T02:52:57;100352.98;;;10.99;100.00
23341;BME280;12239;53.404;23.492;2022-07-29T02:55:26;100351.59;;;11.01;100.00
23341;BME280;12239;53.404;23.492;2022-07-29T02:58:19;100356.05;;;11.01;100.00
23341;BME280;12239;53.404;23.492;2022-07-29T03:01:10;100351.95;;;11.02;100.00
23341;BME280;12239;53.404;23.492;2022-07-29T03:03:38;100351.03;;;11.04;100.00
23341;BME280;12239;53.404;23.492;2022-07-29T03:06:27;100349.75;;;11.06;100.00
23341;BME280;12239;53.404;23.492;2022-07-29T03:09:15;100352.72;;;11.05;100.00
23341;BME280;12239;53.404;23.492;2022-07-29T03:11:47;100354.38;;;11.05;100.00
23341;BME280;12239;53.404;23.492;2022-07-29T03:14:18;100353.14;;;11.05;100.00
23341;BME280;12239;53.404;23.492;2022-07-29T03:17:06;100353.56;;;11.03;100.00
23341;BME280;12239;53.404;23.492;2022-07-29T03:19:54;100354.21;;;11.03;100.00
23341;BME280;12239;53.404;23.492;2022-07-29T03:22:27;100358.27;;;11.01;100.00
23341;BME280;12239;53.404;23.492;2022-07-29T03:25:15;100356.26;;;11.00;100.00
23341;BME280;12239;53.404;23.492;2022-07-29T03:28:02;100357.09;;;11.00;100.00
23341;BME280;12239;53.404;23.492;2022-07-29T03:30:39;100357.19;;;11.00;100.00
23341;BME280;12239;53.404;23.492;2022-07-29T03:33:27;100360.95;;;11.01;100.00
23341;BME280;12239;53.404;23.492;2022-07-29T03:36:15;100363.41;;;11.03;100.00
23341;BME280;12239;53.404;23.492;2022-07-29T03:39:03;100365.14;;;11.04;100.00
23341;BME280;12239;53.404;23.492;2022-07-29T03:41:52;100366.86;;;11.06;100.00
23341;BME280;12239;53.404;23.492;2022-07-29T03:44:40;100367.55;;;11.07;100.00
23341;BME280;12239;53.404;23.492;2022-07-29T03:47:11;100364.92;;;11.08;100.00
23341;BME280;12239;53.404;23.492;2022-07-29T03:50:01;100366.55;;;11.09;100.00
23341;BME280;12239;53.404;23.492;2022-07-29T03:52:37;100365.67;;;11.11;100.00
23341;BME280;12239;53.404;23.492;2022-07-29T03:55:25;100366.67;;;11.19;100.00
23341;BME280;12239;53.404;23.492;2022-07-29T03:58:14;100365.45;;;11.35;100.00
23341;BME280;12239;53.404;23.492;2022-07-29T04:01:02;100366.86;;;11.63;100.00
23341;BME280;12239;53.404;23.492;2022-07-29T04:03:29;100364.23;;;11.96;100.00
23341;BME280;12239;53.404;23.492;2022-07-29T04:06:17;100362.14;;;12.32;100.00
23341;BME280;12239;53.404;23.492;2022-07-29T04:09:04;100363.05;;;12.61;100.00
23341;BME280;12239;53.404;23.492;2022-07-29T04:11:52;100363.08;;;12.89;100.00
23341;BME280;12239;53.404;23.492;2022-07-29T04:14:39;100365.95;;;13.17;100.00
23341;BME280;12239;53.404;23.492;2022-07-29T04:17:27;100366.19;;;13.42;100.00
23341;BME280;12239;53.404;23.492;2022-07-29T04:20:15;100368.88;;;13.66;100.00
23341;BME280;12239;53.404;23.492;2022-07-29T04:22:47;100368.48;;;13.71;100.00
23341;BME280;12239;53.404;23.492;2022-07-29T04:25:37;100368.41;;;13.82;100.00
23341;BME280;12239;53.404;23.492;2022-07-29T04:28:25;100365.83;;;14.01;100.00
23341;BME280;12239;53.404;23.492;2022-07-29T04:31:01;100365.48;;;14.18;100.00
23341;BME280;12239;53.404;23.492;2022-07-29T04:33:49;100368.21;;;14.31;99.68
23341;BME280;12239;53.404;23.492;2022-07-29T04:36:36;100365.45;;;14.34;99.10
23341;BME280;12239;53.404;23.492;2022-07-29T04:39:32;100368.95;;;14.50;98.41
23341;BME280;12239;53.404;23.492;2022-07-29T04:42:19;100369.36;;;14.59;98.60
23341;BME280;12239;53.404;23.492;2022-07-29T04:45:07;100365.63;;;14.66;98.06
23341;BME280;12239;53.404;23.492;2022-07-29T04:47:55;100368.25;;;14.71;96.99
23341;BME280;12239;53.404;23.492;2022-07-29T04:50:43;100364.77;;;14.84;96.41
23341;BME280;12239;53.404;23.492;2022-07-29T04:53:31;100364.23;;;14.81;95.35
23341;BME280;12239;53.404;23.492;2022-07-29T04:56:02;100370.69;;;14.86;96.09
23341;BME280;12239;53.404;23.492;2022-07-29T04:58:49;100363.89;;;14.92;96.16
23341;BME280;12239;53.404;23.492;2022-07-29T05:01:37;100367.21;;;15.00;94.96
23341;BME280;12239;53.404;23.492;2022-07-29T05:04:25;100366.91;;;14.98;95.03
23341;BME280;12239;53.404;23.492;2022-07-29T05:07:12;100366.60;;;14.85;94.49
23341;BME280;12239;53.404;23.492;2022-07-29T05:09:40;100369.55;;;14.72;95.60
23341;BME280;12239;53.404;23.492;2022-07-29T05:12:28;100366.61;;;14.66;96.64
23341;BME280;12239;53.404;23.492;2022-07-29T05:15:15;100362.67;;;14.57;96.95
23341;BME280;12239;53.404;23.492;2022-07-29T05:17:54;100367.17;;;14.49;98.31
23341;BME280;12239;53.404;23.492;2022-07-29T05:20:30;100367.52;;;14.50;97.98
23341;BME280;12239;53.404;23.492;2022-07-29T05:22:59;100369.42;;;14.47;98.14
23341;BME280;12239;53.404;23.492;2022-07-29T05:25:27;100368.39;;;14.48;99.35
23341;BME280;12239;53.404;23.492;2022-07-29T05:28:15;100370.73;;;14.51;99.07
23341;BME280;12239;53.404;23.492;2022-07-29T05:31:03;100367.65;;;14.56;99.23
23341;BME280;12239;53.404;23.492;2022-07-29T05:33:50;100363.05;;;14.61;97.94
23341;BME280;12239;53.404;23.492;2022-07-29T05:36:37;100363.83;;;14.63;96.54
23341;BME280;12239;53.404;23.492;2022-07-29T05:39:25;100356.36;;;14.62;95.60
23341;BME280;12239;53.404;23.492;2022-07-29T05:42:12;100361.65;;;14.67;95.23
23341;BME280;12239;53.404;23.492;2022-07-29T05:44:40;100358.59;;;14.73;94.97
23341;BME280;12239;53.404;23.492;2022-07-29T05:47:27;100360.50;;;14.81;94.82
23341;BME280;12239;53.404;23.492;2022-07-29T05:50:15;100362.11;;;14.91;94.81
23341;BME280;12239;53.404;23.492;2022-07-29T05:52:44;100366.62;;;15.02;93.34
23341;BME280;12239;53.404;23.492;2022-07-29T05:55:12;100362.23;;;15.08;92.56
23341;BME280;12239;53.404;23.492;2022-07-29T05:57:59;100369.79;;;15.17;90.75
23341;BME280;12239;53.404;23.492;2022-07-29T06:00:27;100371.63;;;15.22;90.21
23341;BME280;12239;53.404;23.492;2022-07-29T06:03:14;100373.19;;;15.29;90.71
23341;BME280;12239;53.404;23.492;2022-07-29T06:06:02;100374.20;;;15.38;87.63
23341;BME280;12239;53.404;23.492;2022-07-29T06:08:49;100380.17;;;15.46;86.06
23341;BME280;12239;53.404;23.492;2022-07-29T06:11:37;100385.84;;;15.53;85.30
23341;BME280;12239;53.404;23.492;2022-07-29T06:14:24;100386.46;;;15.63;87.17
23341;BME280;12239;53.404;23.492;2022-07-29T06:17:13;100388.29;;;15.78;87.20
23341;BME280;12239;53.404;23.492;2022-07-29T06:20:00;100386.58;;;15.90;86.88
23341;BME280;12239;53.404;23.492;2022-07-29T06:22:48;100389.38;;;16.03;84.71
23341;BME280;12239;53.404;23.492;2022-07-29T06:25:35;100388.23;;;16.11;84.47
23341;BME280;12239;53.404;23.492;2022-07-29T06:28:23;100390.90;;;16.16;81.42
23341;BME280;12239;53.404;23.492;2022-07-29T06:31:11;100389.49;;;16.13;82.68
23341;BME280;12239;53.404;23.492;2022-07-29T06:33:38;100389.07;;;16.18;83.57
23341;BME280;12239;53.404;23.492;2022-07-29T06:36:25;100389.11;;;16.26;82.25
23341;BME280;12239;53.404;23.492;2022-07-29T06:39:13;100394.02;;;16.24;81.29
23341;BME280;12239;53.404;23.492;2022-07-29T06:42:00;100394.12;;;16.27;82.01
23341;BME280;12239;53.404;23.492;2022-07-29T06:44:31;100392.48;;;16.30;81.35
23341;BME280;12239;53.404;23.492;2022-07-29T06:47:20;100389.52;;;16.35;81.92
23341;BME280;12239;53.404;23.492;2022-07-29T06:50:08;100387.78;;;16.43;82.42
23341;BME280;12239;53.404;23.492;2022-07-29T06:52:58;100383.95;;;16.49;81.32
23341;BME280;12239;53.404;23.492;2022-07-29T06:55:46;100382.09;;;16.52;81.77
23341;BME280;12239;53.404;23.492;2022-07-29T06:58:34;100379.88;;;16.62;81.98
23341;BME280;12239;53.404;23.492;2022-07-29T07:01:21;100379.81;;;16.70;80.39
23341;BME280;12239;53.404;23.492;2022-07-29T07:04:09;100381.93;;;16.73;81.52
23341;BME280;12239;53.404;23.492;2022-07-29T07:06:37;100381.61;;;16.78;80.94
23341;BME280;12239;53.404;23.492;2022-07-29T07:09:24;100380.25;;;16.85;78.73
23341;BME280;12239;53.404;23.492;2022-07-29T07:12:12;100381.40;;;16.92;79.54
23341;BME280;12239;53.404;23.492;2022-07-29T07:14:59;100384.09;;;16.99;75.70
23341;BME280;12239;53.404;23.492;2022-07-29T07:17:47;100382.34;;;17.00;74.21
23341;BME280;12239;53.404;23.492;2022-07-29T07:20:35;100375.98;;;17.00;73.11
23341;BME280;12239;53.404;23.492;2022-07-29T07:23:23;100374.17;;;17.02;73.57
23341;BME280;12239;53.404;23.492;2022-07-29T07:26:10;100372.44;;;17.15;73.75
23341;BME280;12239;53.404;23.492;2022-07-29T07:28:58;100374.64;;;17.26;68.81
23341;BME280;12239;53.404;23.492;2022-07-29T07:31:46;100372.49;;;17.29;68.78
23341;BME280;12239;53.404;23.492;2022-07-29T07:34:34;100369.27;;;17.31;66.16
23341;BME280;12239;53.404;23.492;2022-07-29T07:37:21;100366.88;;;17.33;68.86
23341;BME280;12239;53.404;23.492;2022-07-29T07:40:10;100368.15;;;17.40;68.65
23341;BME280;12239;53.404;23.492;2022-07-29T07:42:55;100369.15;;;17.43;68.91
23341;BME280;12239;53.404;23.492;2022-07-29T07:45:42;100371.92;;;17.49;69.16
23341;BME280;12239;53.404;23.492;2022-07-29T07:48:19;100368.09;;;17.52;69.44
23341;BME280;12239;53.404;23.492;2022-07-29T07:51:06;100371.51;;;17.60;69.43
23341;BME280;12239;53.404;23.492;2022-07-29T07:53:34;100370.64;;;17.70;68.20
23341;BME280;12239;53.404;23.492;2022-07-29T07:56:05;100366.59;;;17.74;67.05
23341;BME280;12239;53.404;23.492;2022-07-29T07:58:53;100363.48;;;17.81;66.99
23341;BME280;12239;53.404;23.492;2022-07-29T08:01:40;100364.11;;;17.88;65.27
23341;BME280;12239;53.404;23.492;2022-07-29T08:04:13;100370.41;;;17.95;63.61
23341;BME280;12239;53.404;23.492;2022-07-29T08:07:00;100369.84;;;17.96;59.98
23341;BME280;12239;53.404;23.492;2022-07-29T08:09:48;100372.77;;;17.95;62.38
23341;BME280;12239;53.404;23.492;2022-07-29T08:12:35;100374.45;;;17.92;61.83
23341;BME280;12239;53.404;23.492;2022-07-29T08:15:07;100373.77;;;17.93;62.28
23341;BME280;12239;53.404;23.492;2022-07-29T08:17:55;100375.90;;;17.99;63.02
23341;BME280;12239;53.404;23.492;2022-07-29T08:20:25;100376.09;;;18.03;62.08
23341;BME280;12239;53.404;23.492;2022-07-29T08:22:53;100380.94;;;18.05;62.05
23341;BME280;12239;53.404;23.492;2022-07-29T08:25:40;100378.66;;;18.07;63.63
23341;BME280;12239;53.404;23.492;2022-07-29T08:28:28;100378.15;;;18.12;61.43
23341;BME280;12239;53.404;23.492;2022-07-29T08:31:07;100382.35;;;18.18;61.21
23341;BME280;12239;53.404;23.492;2022-07-29T08:33:54;100385.70;;;18.25;60.49
23341;BME280;12239;53.404;23.492;2022-07-29T08:36:42;100387.34;;;18.30;58.48
23341;BME280;12239;53.404;23.492;2022-07-29T08:39:12;100388.20;;;18.36;59.07
23341;BME280;12239;53.404;23.492;2022-07-29T08:41:42;100389.79;;;18.40;59.10
23341;BME280;12239;53.404;23.492;2022-07-29T08:44:30;100384.42;;;18.38;56.51
23341;BME280;12239;53.404;23.492;2022-07-29T08:47:15;100386.92;;;18.39;57.42
23341;BME280;12239;53.404;23.492;2022-07-29T08:50:06;100387.48;;;18.40;58.52
23341;BME280;12239;53.404;23.492;2022-07-29T08:52:37;100386.09;;;18.46;56.23
23341;BME280;12239;53.404;23.492;2022-07-29T08:55:25;100390.47;;;18.52;54.85
23341;BME280;12239;53.404;23.492;2022-07-29T08:57:53;100389.13;;;18.53;53.73
23341;BME280;12239;53.404;23.492;2022-07-29T09:00:42;100390.61;;;18.50;55.94
23341;BME280;12239;53.404;23.492;2022-07-29T09:03:30;100383.53;;;18.50;46.52
23341;BME280;12239;53.404;23.492;2022-07-29T09:06:18;100380.27;;;18.55;47.75
23341;BME280;12239;53.404;23.492;2022-07-29T09:09:08;100382.73;;;18.69;50.43
23341;BME280;12239;53.404;23.492;2022-07-29T09:11:36;100380.52;;;18.82;51.18
23341;BME280;12239;53.404;23.492;2022-07-29T09:14:03;100382.09;;;18.92;50.91
23341;BME280;12239;53.404;23.492;2022-07-29T09:16:46;100379.45;;;18.96;50.92
23341;BME280;12239;53.404;23.492;2022-07-29T09:19:34;100383.24;;;19.03;48.44
23341;BME280;12239;53.404;23.492;2022-07-29T09:22:28;100390.61;;;19.08;49.97
23341;BME280;12239;53.404;23.492;2022-07-29T09:24:59;100388.89;;;19.06;49.03
23341;BME280;12239;53.404;23.492;2022-07-29T09:27:48;100390.11;;;19.05;49.31
23341;BME280;12239;53.404;23.492;2022-07-29T09:30:37;100389.26;;;19.11;50.01
23341;BME280;12239;53.404;23.492;2022-07-29T09:33:36;100384.30;;;19.17;50.95
23341;BME280;12239;53.404;23.492;2022-07-29T09:36:07;100383.75;;;19.23;50.86
23341;BME280;12239;53.404;23.492;2022-07-29T09:38:35;100385.50;;;19.28;48.81
23341;BME280;12239;53.404;23.492;2022-07-29T09:41:04;100384.80;;;19.29;47.63
23341;BME280;12239;53.404;23.492;2022-07-29T09:43:41;100387.10;;;19.35;47.62
23341;BME280;12239;53.404;23.492;2022-07-29T09:46:40;100383.69;;;19.35;48.75
23341;BME280;12239;53.404;23.492;2022-07-29T09:49:28;100383.80;;;19.30;49.65
23341;BME280;12239;53.404;23.492;2022-07-29T09:52:16;100382.36;;;19.27;49.78
23341;BME280;12239;53.404;23.492;2022-07-29T09:55:07;100382.27;;;19.33;50.78
23341;BME280;12239;53.404;23.492;2022-07-29T09:57:40;100373.95;;;19.41;49.95
23341;BME280;12239;53.404;23.492;2022-07-29T10:00:27;100374.92;;;19.50;49.32
23341;BME280;12239;53.404;23.492;2022-07-29T10:03:15;100373.81;;;19.63;46.43
23341;BME280;12239;53.404;23.492;2022-07-29T10:06:04;100371.96;;;19.66;46.00
23341;BME280;12239;53.404;23.492;2022-07-29T10:08:52;100366.80;;;19.63;46.23
23341;BME280;12239;53.404;23.492;2022-07-29T10:11:20;100371.52;;;19.66;46.99
23341;BME280;12239;53.404;23.492;2022-07-29T10:13:56;100360.20;;;19.66;45.82
23341;BME280;12239;53.404;23.492;2022-07-29T10:16:44;100361.27;;;19.64;46.28
23341;BME280;12239;53.404;23.492;2022-07-29T10:19:32;100365.16;;;19.71;47.21
23341;BME280;12239;53.404;23.492;2022-07-29T10:22:04;100361.50;;;19.74;44.73
23341;BME280;12239;53.404;23.492;2022-07-29T10:24:51;100358.36;;;19.73;45.64
23341;BME280;12239;53.404;23.492;2022-07-29T10:27:39;100354.72;;;19.76;46.35
23341;BME280;12239;53.404;23.492;2022-07-29T10:30:26;100360.05;;;19.80;46.77
23341;BME280;12239;53.404;23.492;2022-07-29T10:33:21;100361.52;;;19.88;46.20
23341;BME280;12239;53.404;23.492;2022-07-29T10:36:20;100362.94;;;19.94;45.72
23341;BME280;12239;53.404;23.492;2022-07-29T10:39:13;100360.15;;;19.99;44.46
23341;BME280;12239;53.404;23.492;2022-07-29T10:42:10;100361.89;;;19.99;43.37
23341;BME280;12239;53.404;23.492;2022-07-29T10:45:01;100361.73;;;19.95;42.08
23341;BME280;12239;53.404;23.492;2022-07-29T10:47:31;100356.08;;;19.94;43.07
23341;BME280;12239;53.404;23.492;2022-07-29T10:50:02;100350.63;;;19.95;43.45
23341;BME280;12239;53.404;23.492;2022-07-29T10:52:53;100351.43;;;19.99;44.04
23341;BME280;12239;53.404;23.492;2022-07-29T10:55:43;100349.59;;;20.00;43.33
23341;BME280;12239;53.404;23.492;2022-07-29T10:58:33;100349.55;;;20.06;44.98
23341;BME280;12239;53.404;23.492;2022-07-29T11:01:28;100348.29;;;20.04;44.93
23341;BME280;12239;53.404;23.492;2022-07-29T11:04:17;100344.85;;;20.08;46.40
23341;BME280;12239;53.404;23.492;2022-07-29T11:07:24;100345.61;;;20.24;45.33
23341;BME280;12239;53.404;23.492;2022-07-29T11:10:20;100345.39;;;20.31;44.77
23341;BME280;12239;53.404;23.492;2022-07-29T11:12:48;100340.67;;;20.45;45.23
23341;BME280;12239;53.404;23.492;2022-07-29T11:15:16;100343.84;;;20.58;44.84
23341;BME280;12239;53.404;23.492;2022-07-29T11:18:07;100342.53;;;20.63;45.86
23341;BME280;12239;53.404;23.492;2022-07-29T11:20:55;100339.58;;;20.68;43.03
23341;BME280;12239;53.404;23.492;2022-07-29T11:23:42;100335.84;;;20.64;43.08
23341;BME280;12239;53.404;23.492;2022-07-29T11:26:30;100337.36;;;20.60;42.04
23341;BME280;12239;53.404;23.492;2022-07-29T11:29:19;100334.54;;;20.62;42.97
23341;BME280;12239;53.404;23.492;2022-07-29T11:32:09;100336.16;;;20.70;43.01
23341;BME280;12239;53.404;23.492;2022-07-29T11:35:16;100337.63;;;20.77;43.11
23341;BME280;12239;53.404;23.492;2022-07-29T11:41:22;100335.15;;;20.89;42.27
23341;BME280;12239;53.404;23.492;2022-07-29T11:44:10;100338.84;;;20.90;41.96
23341;BME280;12239;53.404;23.492;2022-07-29T11:46:58;100336.17;;;20.89;41.71
23341;BME280;12239;53.404;23.492;2022-07-29T11:49:46;100324.93;;;20.85;41.99
23341;BME280;12239;53.404;23.492;2022-07-29T11:52:35;100327.06;;;20.92;42.50
23341;BME280;12239;53.404;23.492;2022-07-29T11:55:24;100327.98;;;21.01;40.92
23341;BME280;12239;53.404;23.492;2022-07-29T11:58:12;100317.42;;;21.01;39.89
23341;BME280;12239;53.404;23.492;2022-07-29T12:00:40;100318.40;;;20.98;39.27
23341;BME280;12239;53.404;23.492;2022-07-29T12:03:28;100315.73;;;20.98;39.60
23341;BME280;12239;53.404;23.492;2022-07-29T12:05:56;100312.63;;;21.00;40.83
23341;BME280;12239;53.404;23.492;2022-07-29T12:08:43;100311.39;;;21.03;40.46
23341;BME280;12239;53.404;23.492;2022-07-29T12:11:31;100309.27;;;21.06;40.20
23341;BME280;12239;53.404;23.492;2022-07-29T12:14:08;100307.19;;;20.99;39.84
23341;BME280;12239;53.404;23.492;2022-07-29T12:16:46;100308.89;;;21.00;41.41
23341;BME280;12239;53.404;23.492;2022-07-29T12:19:14;100309.42;;;21.10;40.11
23341;BME280;12239;53.404;23.492;2022-07-29T12:22:01;100307.35;;;21.09;39.69
23341;BME280;12239;53.404;23.492;2022-07-29T12:24:49;100314.13;;;21.18;40.26
23341;BME280;12239;53.404;23.492;2022-07-29T12:27:37;100313.65;;;21.23;40.60
23341;BME280;12239;53.404;23.492;2022-07-29T12:30:33;100316.77;;;21.32;40.74
23341;BME280;12239;53.404;23.492;2022-07-29T12:33:21;100315.61;;;21.40;40.90
23341;BME280;12239;53.404;23.492;2022-07-29T12:35:49;100311.73;;;21.39;40.44
23341;BME280;12239;53.404;23.492;2022-07-29T12:38:37;100305.86;;;21.33;40.56
23341;BME280;12239;53.404;23.492;2022-07-29T12:41:09;100299.28;;;21.38;40.87
23341;BME280;12239;53.404;23.492;2022-07-29T12:43:37;100298.77;;;21.45;40.04
23341;BME280;12239;53.404;23.492;2022-07-29T12:46:12;100295.31;;;21.47;39.97
23341;BME280;12239;53.404;23.492;2022-07-29T12:48:40;100294.48;;;21.52;40.58
23341;BME280;12239;53.404;23.492;2022-07-29T12:51:17;100294.28;;;21.51;39.57
23341;BME280;12239;53.404;23.492;2022-07-29T12:54:02;100298.52;;;21.47;40.24
23341;BME280;12239;53.404;23.492;2022-07-29T12:56:57;100299.44;;;21.46;39.92
23341;BME280;12239;53.404;23.492;2022-07-29T12:59:46;100297.88;;;21.44;40.06
23341;BME280;12239;53.404;23.492;2022-07-29T13:02:46;100302.55;;;21.46;41.97
23341;BME280;12239;53.404;23.492;2022-07-29T13:05:24;100303.34;;;21.53;41.36
23341;BME280;12239;53.404;23.492;2022-07-29T13:08:10;100305.14;;;21.60;40.10
23341;BME280;12239;53.404;23.492;2022-07-29T13:10:37;100304.92;;;21.67;40.18
23341;BME280;12239;53.404;23.492;2022-07-29T13:13:15;100300.27;;;21.70;39.96
23341;BME280;12239;53.404;23.492;2022-07-29T13:16:05;100295.59;;;21.74;40.13
23341;BME280;12239;53.404;23.492;2022-07-29T13:19:03;100292.78;;;21.76;40.28
23341;BME280;12239;53.404;23.492;2022-07-29T13:21:31;100290.53;;;21.80;39.69
23341;BME280;12239;53.404;23.492;2022-07-29T13:24:19;100286.23;;;21.80;40.37
23341;BME280;12239;53.404;23.492;2022-07-29T13:27:06;100282.33;;;21.83;40.16
23341;BME280;12239;53.404;23.492;2022-07-29T13:29:33;100287.25;;;21.91;40.62
23341;BME280;12239;53.404;23.492;2022-07-29T13:32:12;100283.58;;;22.14;39.74
23341;BME280;12239;53.404;23.492;2022-07-29T13:34:47;100281.13;;;22.36;39.39
23341;BME280;12239;53.404;23.492;2022-07-29T13:37:15;100276.52;;;22.48;39.28
23341;BME280;12239;53.404;23.492;2022-07-29T13:39:43;100274.80;;;22.45;38.86
23341;BME280;12239;53.404;23.492;2022-07-29T13:42:10;100263.94;;;22.37;39.15
23341;BME280;12239;53.404;23.492;2022-07-29T13:44:39;100262.48;;;22.38;39.65
23341;BME280;12239;53.404;23.492;2022-07-29T13:47:10;100270.52;;;22.44;39.04
23341;BME280;12239;53.404;23.492;2022-07-29T13:49:38;100270.56;;;22.42;38.80
23341;BME280;12239;53.404;23.492;2022-07-29T13:52:05;100269.89;;;22.36;39.24
23341;BME280;12239;53.404;23.492;2022-07-29T13:54:41;100268.98;;;22.38;38.61
23341;BME280;12239;53.404;23.492;2022-07-29T13:57:11;100262.45;;;22.37;38.39
23341;BME280;12239;53.404;23.492;2022-07-29T13:59:39;100263.85;;;22.49;38.48